Anderson, Texas
Current Conditions -  °F | °C
As of 3:53 AM on Thursday 23 Oct 2014 (Local Time) from KCLL Reporting Station
Scattered Clouds Scattered Clouds  
Wind Chill: 66°   Ceiling: Unl
Heat Index: 66°   Visibility: 10mi
Dew Point: 57°   Wind: 3mph
Humidity: 73%   Direction: 70°ENE
Pressure: 30.09"   Gusts: NA
Location:  30.49°N, 95.99°W
Report Text: KCLL 230853Z 07003KT 10SM SCT110 19/14 A3009 RMK AO2 SLP186 T01890139 56000
Loading
Personal Weather Stations






























Interactive Weather Map
Tropical Storm Tracking
New forecast layout! Learn more

10-Day Weather Forecast

Advertisements
Track Severe Weather on mobile